createdAt,value
2019-04-25T00:00:58.714Z,1.37
2019-04-25T00:03:27.030Z,1.20
2019-04-25T00:05:53.201Z,1.40
2019-04-25T00:08:21.421Z,1.27
2019-04-25T00:10:48.447Z,1.00
2019-04-25T00:13:15.142Z,0.97
2019-04-25T00:15:41.946Z,1.00
2019-04-25T00:18:09.415Z,0.97
2019-04-25T00:20:38.815Z,0.83
2019-04-25T00:23:18.205Z,0.70
2019-04-25T00:26:04.501Z,1.20
2019-04-25T00:28:31.632Z,0.70
2019-04-25T00:30:58.069Z,0.90
2019-04-25T00:33:24.574Z,0.80
2019-04-25T00:35:51.716Z,0.70
2019-04-25T00:38:18.848Z,0.77
2019-04-25T00:40:45.889Z,0.60
2019-04-25T00:43:12.123Z,0.63
2019-04-25T00:45:38.671Z,0.90
2019-04-25T00:48:04.804Z,0.60
2019-04-25T00:50:31.936Z,0.87
2019-04-25T00:52:58.186Z,0.70
2019-04-25T00:55:28.676Z,0.50
2019-04-25T00:57:54.612Z,0.60
2019-04-25T01:00:28.639Z,0.50
2019-04-25T01:02:56.678Z,0.70
2019-04-25T01:05:23.038Z,0.50
2019-04-25T01:07:49.828Z,0.67
2019-04-25T01:10:16.553Z,0.50
2019-04-25T01:12:42.729Z,0.70
2019-04-25T01:15:11.583Z,0.60
2019-04-25T01:17:37.788Z,0.50
2019-04-25T01:20:07.705Z,0.80
2019-04-25T01:22:34.328Z,0.80
2019-04-25T01:25:00.577Z,0.60
2019-04-25T01:27:27.381Z,0.70
2019-04-25T01:29:54.445Z,0.50
2019-04-25T01:32:23.782Z,0.53
2019-04-25T01:34:54.657Z,0.60
2019-04-25T01:37:27.890Z,0.63
2019-04-25T01:40:13.999Z,0.50
2019-04-25T01:42:44.842Z,0.50
2019-04-25T01:45:11.374Z,0.60
2019-04-25T01:47:37.513Z,0.40
2019-04-25T01:50:06.035Z,0.70
2019-04-25T01:52:33.442Z,0.50
2019-04-25T01:54:59.811Z,0.50
2019-04-25T01:57:25.977Z,0.67
2019-04-25T01:59:54.112Z,0.60
2019-04-25T02:02:23.583Z,0.80
2019-04-25T02:04:51.296Z,0.47
2019-04-25T02:07:17.820Z,0.60
2019-04-25T02:09:44.034Z,0.60
2019-04-25T02:12:15.609Z,0.50
2019-04-25T02:14:43.484Z,0.70
2019-04-25T02:17:10.009Z,0.77
2019-04-25T02:19:36.190Z,0.70
2019-04-25T02:22:04.022Z,0.70
2019-04-25T02:24:30.367Z,0.70
2019-04-25T02:26:57.258Z,0.50
2019-04-25T02:29:23.574Z,0.87
2019-04-25T02:31:49.855Z,0.70
2019-04-25T02:34:18.165Z,0.53
2019-04-25T02:36:47.054Z,0.60
2019-04-25T02:39:17.335Z,0.80
2019-04-25T02:41:44.523Z,0.60
2019-04-25T02:44:10.816Z,0.60
2019-04-25T02:46:59.129Z,0.50
2019-04-25T02:49:38.265Z,0.70
2019-04-25T02:52:08.588Z,0.50
2019-04-25T02:54:34.889Z,0.63
2019-04-25T02:57:02.048Z,0.70
2019-04-25T02:59:28.481Z,0.53
2019-04-25T03:01:54.763Z,0.50
2019-04-25T03:04:20.907Z,0.57
2019-04-25T03:06:47.129Z,0.50
2019-04-25T03:09:15.359Z,0.40
2019-04-25T03:11:41.687Z,0.50
2019-04-25T03:14:09.912Z,0.60
2019-04-25T03:16:42.013Z,0.70
2019-04-25T03:19:26.378Z,0.60
2019-04-25T03:21:58.635Z,0.50
2019-04-25T03:24:25.932Z,0.40
2019-04-25T03:26:53.210Z,0.40
2019-04-25T03:29:19.471Z,0.67
2019-04-25T03:31:45.677Z,0.60
2019-04-25T03:34:16.054Z,0.57
2019-04-25T03:36:40.215Z,0.90
2019-04-25T03:39:06.682Z,1.00
2019-04-25T03:41:34.079Z,1.00
2019-04-25T03:44:01.640Z,0.80
2019-04-25T03:46:29.045Z,0.70
2019-04-25T03:48:55.259Z,0.63
2019-04-25T03:51:21.411Z,0.90
2019-04-25T03:53:47.620Z,1.00
2019-04-25T03:56:14.663Z,1.07
2019-04-25T03:58:41.261Z,1.00
2019-04-25T04:01:08.650Z,1.00
2019-04-25T04:03:35.666Z,0.67
2019-04-25T04:06:01.821Z,0.73
2019-04-25T04:08:28.156Z,0.80
2019-04-25T04:10:54.453Z,0.80
2019-04-25T04:13:20.999Z,0.70
2019-04-25T04:15:47.143Z,0.73
2019-04-25T04:18:17.268Z,0.70
2019-04-25T04:21:03.178Z,0.60
2019-04-25T04:23:37.689Z,0.67
2019-04-25T04:26:04.122Z,0.67
2019-04-25T04:28:30.334Z,0.50
2019-04-25T04:30:56.462Z,0.50
2019-04-25T04:33:30.222Z,0.50
2019-04-25T04:35:50.781Z,0.47
2019-04-25T04:38:16.999Z,0.50
2019-04-25T04:40:44.186Z,0.67
2019-04-25T04:43:18.438Z,0.50
2019-04-25T04:45:45.674Z,0.57
2019-04-25T04:48:14.137Z,0.53
2019-04-25T04:50:40.299Z,0.70
2019-04-25T04:53:06.530Z,0.73
2019-04-25T04:55:34.343Z,0.70
2019-04-25T04:58:01.466Z,0.60
2019-04-25T05:00:29.097Z,0.50
2019-04-25T05:03:04.378Z,0.53
2019-04-25T05:05:41.920Z,0.60
2019-04-25T05:08:16.444Z,0.80
2019-04-25T05:10:43.814Z,0.60
2019-04-25T05:13:10.025Z,0.90
2019-04-25T05:15:36.241Z,0.60
2019-04-25T05:18:04.025Z,0.40
2019-04-25T05:20:30.805Z,0.63
2019-04-25T05:22:56.957Z,0.40
2019-04-25T05:25:24.585Z,0.40
2019-04-25T05:28:02.127Z,0.60
2019-04-25T05:30:26.442Z,0.40
2019-04-25T05:32:51.849Z,0.50
2019-04-25T05:35:18.061Z,0.40
2019-04-25T05:37:44.203Z,0.60
2019-04-25T05:40:10.613Z,0.70
2019-04-25T05:42:55.271Z,0.63
2019-04-25T05:45:26.369Z,0.50
2019-04-25T05:47:54.009Z,0.50
2019-04-25T05:50:20.811Z,0.60
2019-04-25T05:52:46.977Z,0.50
2019-04-25T05:55:14.284Z,0.70
2019-04-25T05:57:47.354Z,0.80
2019-04-25T06:00:15.146Z,0.37
2019-04-25T06:02:41.442Z,0.67
2019-04-25T06:05:08.406Z,0.80
2019-04-25T06:07:43.243Z,0.60
2019-04-25T06:10:15.015Z,0.50
2019-04-25T06:12:45.954Z,0.60
2019-04-25T06:15:13.231Z,0.50
2019-04-25T06:17:41.413Z,0.80
2019-04-25T06:20:10.637Z,0.50
2019-04-25T06:22:55.219Z,0.47
2019-04-25T06:25:27.139Z,0.47
2019-04-25T06:27:57.219Z,0.60
2019-04-25T06:30:27.089Z,0.40
2019-04-25T06:32:53.565Z,0.43
2019-04-25T06:35:21.026Z,0.40
2019-04-25T06:37:47.481Z,0.50
2019-04-25T06:40:16.035Z,0.47
2019-04-25T06:42:43.541Z,0.40
2019-04-25T06:45:25.217Z,0.67
2019-04-25T06:48:03.954Z,0.40
2019-04-25T06:50:30.388Z,0.50
2019-04-25T06:52:56.534Z,0.47
2019-04-25T06:55:23.662Z,0.20
2019-04-25T06:57:50.803Z,0.20
2019-04-25T07:00:17.655Z,0.30
2019-04-25T07:02:43.864Z,0.23
2019-04-25T07:05:11.017Z,0.30
2019-04-25T07:07:37.564Z,0.30
2019-04-25T07:10:06.950Z,0.30
2019-04-25T07:12:34.788Z,0.30
2019-04-25T07:15:03.925Z,0.30
2019-04-25T07:17:30.582Z,0.20
2019-04-25T07:19:56.902Z,0.30
2019-04-25T07:22:23.905Z,0.20
2019-04-25T07:24:51.205Z,0.20
2019-04-25T07:27:36.478Z,0.17
2019-04-25T07:30:27.155Z,0.40
2019-04-25T07:33:04.085Z,0.30
2019-04-25T07:35:31.177Z,0.30
2019-04-25T07:37:57.450Z,0.20
2019-04-25T07:40:25.654Z,0.30
2019-04-25T07:42:53.580Z,0.20
2019-04-25T07:45:20.135Z,0.20
2019-04-25T07:47:46.408Z,0.13
2019-04-25T07:50:15.093Z,0.23
2019-04-25T07:52:41.324Z,0.33
2019-04-25T07:55:07.856Z,0.23
2019-04-25T07:57:34.884Z,0.30
2019-04-25T08:00:10.673Z,0.20
2019-04-25T08:02:37.540Z,0.27
2019-04-25T08:05:06.628Z,0.20
2019-04-25T08:07:33.947Z,0.20
2019-04-25T08:10:00.881Z,0.20
2019-04-25T08:12:28.238Z,0.30
2019-04-25T08:14:56.454Z,0.43
2019-04-25T08:17:41.743Z,0.37
2019-04-25T08:20:09.393Z,0.40
2019-04-25T08:22:50.162Z,0.27
2019-04-25T08:25:06.961Z,0.40
2019-04-25T08:27:34.390Z,0.30
2019-04-25T08:30:01.882Z,0.37
2019-04-25T08:32:28.132Z,0.40
2019-04-25T08:34:54.349Z,0.30
2019-04-25T08:37:21.226Z,0.30
2019-04-25T08:39:47.510Z,0.40
2019-04-25T08:42:14.783Z,0.33
2019-04-25T08:44:41.378Z,0.20
2019-04-25T08:47:07.539Z,0.10
2019-04-25T08:49:45.928Z,0.30
2019-04-25T08:52:13.234Z,0.20
2019-04-25T08:54:50.264Z,0.30
2019-04-25T08:57:18.293Z,0.33
2019-04-25T08:59:52.479Z,0.20
2019-04-25T09:02:23.497Z,0.30
2019-04-25T09:04:57.563Z,0.30
2019-04-25T09:07:23.710Z,0.30
2019-04-25T09:09:49.924Z,0.50
2019-04-25T09:12:16.094Z,0.53
2019-04-25T09:14:44.736Z,0.30
2019-04-25T09:17:10.721Z,0.33
2019-04-25T09:19:37.558Z,0.40
2019-04-25T09:22:04.663Z,0.50
2019-04-25T09:24:30.888Z,0.60
2019-04-25T09:26:57.304Z,0.50
2019-04-25T09:29:23.938Z,0.20
2019-04-25T09:31:50.099Z,0.40
2019-04-25T09:34:16.305Z,0.20
2019-04-25T09:36:43.936Z,0.20
2019-04-25T09:39:13.579Z,0.40
2019-04-25T09:41:39.922Z,0.37
2019-04-25T09:44:08.014Z,0.40
2019-04-25T09:46:37.216Z,0.37
2019-04-25T09:49:11.211Z,0.50
2019-04-25T09:51:42.813Z,0.40
2019-04-25T09:54:29.391Z,0.50
2019-04-25T09:57:00.355Z,0.30
2019-04-25T09:59:29.325Z,0.30
2019-04-25T10:01:54.791Z,0.30
2019-04-25T10:04:22.944Z,0.50
2019-04-25T10:06:49.451Z,0.37
2019-04-25T10:09:15.811Z,0.40
2019-04-25T10:11:43.994Z,0.40
2019-04-25T10:14:25.141Z,0.30
2019-04-25T10:16:52.444Z,0.40
2019-04-25T10:19:19.438Z,0.50
2019-04-25T10:21:45.749Z,0.30
2019-04-25T10:24:13.543Z,0.20
2019-04-25T10:26:39.929Z,0.30
2019-04-25T10:29:06.067Z,0.37
2019-04-25T10:31:33.802Z,0.43
2019-04-25T10:34:00.047Z,0.60
2019-04-25T10:36:33.522Z,0.37
2019-04-25T10:39:07.660Z,0.40
2019-04-25T10:41:28.021Z,0.30
2019-04-25T10:43:56.120Z,0.50
2019-04-25T10:46:24.321Z,0.50
2019-04-25T10:48:50.606Z,0.33
2019-04-25T10:51:16.925Z,0.40
2019-04-25T10:53:45.402Z,0.50
2019-04-25T10:56:11.296Z,0.20
2019-04-25T10:58:37.505Z,0.37
2019-04-25T11:01:04.002Z,0.30
2019-04-25T11:03:33.738Z,0.30
2019-04-25T11:06:00.421Z,0.30
2019-04-25T11:08:26.552Z,0.30
2019-04-25T11:10:54.904Z,0.30
2019-04-25T11:13:21.371Z,0.63
2019-04-25T11:15:47.721Z,0.30
2019-04-25T11:18:15.221Z,0.40
2019-04-25T11:20:43.091Z,0.33
2019-04-25T11:23:10.878Z,0.30
2019-04-25T11:25:37.016Z,0.30
2019-04-25T11:28:05.945Z,0.27
2019-04-25T11:30:32.500Z,0.50
2019-04-25T11:32:59.125Z,0.50
2019-04-25T11:35:25.353Z,0.40
2019-04-25T11:37:53.463Z,0.30
2019-04-25T11:40:38.376Z,0.30
2019-04-25T11:43:05.081Z,0.27
2019-04-25T11:45:34.314Z,0.20
2019-04-25T11:48:01.937Z,0.20
2019-04-25T11:50:29.049Z,0.30
2019-04-25T11:52:56.181Z,0.30
2019-04-25T11:55:23.899Z,0.30
2019-04-25T11:57:51.387Z,0.40
2019-04-25T12:00:22.234Z,0.40
2019-04-25T12:02:49.688Z,0.30
2019-04-25T12:05:15.940Z,0.30
2019-04-25T12:07:44.410Z,0.30
2019-04-25T12:10:11.744Z,0.30
2019-04-25T12:12:38.022Z,0.30
2019-04-25T12:15:07.753Z,0.40
2019-04-25T12:17:35.262Z,0.40
2019-04-25T12:20:01.526Z,0.33
2019-04-25T12:22:27.733Z,0.40
2019-04-25T12:24:54.723Z,0.40
2019-04-25T12:27:21.989Z,0.27
2019-04-25T12:29:48.129Z,0.20
2019-04-25T12:32:14.345Z,0.20
2019-04-25T12:34:40.746Z,0.20
2019-04-25T12:37:06.891Z,0.30
2019-04-25T12:39:34.169Z,0.20
2019-04-25T12:42:00.694Z,0.30
2019-04-25T12:44:28.827Z,0.20
2019-04-25T12:46:56.938Z,0.20
2019-04-25T12:49:24.181Z,0.30
2019-04-25T12:51:50.478Z,0.23
2019-04-25T12:54:16.700Z,0.20
2019-04-25T12:56:43.292Z,0.27
2019-04-25T12:59:09.933Z,0.30
2019-04-25T13:01:36.089Z,0.30
2019-04-25T13:04:04.175Z,0.27
2019-04-25T13:06:31.434Z,0.20
2019-04-25T13:08:57.642Z,0.30
2019-04-25T13:11:24.030Z,0.27
2019-04-25T13:13:50.519Z,0.30
2019-04-25T13:16:16.797Z,0.20
2019-04-25T13:18:42.990Z,0.20
2019-04-25T13:21:09.135Z,0.40
2019-04-25T13:23:35.685Z,0.30
2019-04-25T13:26:01.937Z,0.40
2019-04-25T13:28:34.147Z,0.40
2019-04-25T13:31:12.384Z,0.30
2019-04-25T13:33:54.804Z,0.30
2019-04-25T13:36:22.654Z,0.30
2019-04-25T13:38:48.873Z,0.40
2019-04-25T13:41:15.216Z,0.30
2019-04-25T13:43:44.277Z,0.30
2019-04-25T13:46:11.130Z,0.50
2019-04-25T13:48:38.560Z,0.33
2019-04-25T13:51:04.831Z,0.30
2019-04-25T13:53:31.632Z,0.37
2019-04-25T13:55:59.251Z,0.40
2019-04-25T13:58:26.633Z,0.30
2019-04-25T14:00:52.996Z,0.50
2019-04-25T14:03:20.659Z,0.23
2019-04-25T14:05:47.829Z,0.30
2019-04-25T14:08:14.928Z,0.30
2019-04-25T14:10:41.216Z,0.30
2019-04-25T14:13:07.620Z,0.40
2019-04-25T14:15:37.161Z,0.40
2019-04-25T14:18:08.300Z,0.30
2019-04-25T14:20:36.442Z,0.23
2019-04-25T14:23:03.649Z,0.30
2019-04-25T14:25:30.037Z,0.30
2019-04-25T14:27:56.177Z,0.50
2019-04-25T14:30:25.242Z,0.20
2019-04-25T14:32:53.643Z,0.40
2019-04-25T14:35:19.918Z,0.27
2019-04-25T14:37:46.065Z,0.77
2019-04-25T14:40:13.899Z,0.30
2019-04-25T14:42:40.213Z,0.33
2019-04-25T14:45:09.193Z,0.70
2019-04-25T14:47:35.407Z,0.50
2019-04-25T14:50:02.567Z,0.90
2019-04-25T14:52:28.698Z,0.80
2019-04-25T14:55:03.017Z,0.60
2019-04-25T14:57:31.598Z,0.90
2019-04-25T15:00:01.210Z,0.60
2019-04-25T15:02:28.192Z,0.20
2019-04-25T15:04:54.419Z,0.47
2019-04-25T15:07:20.545Z,0.40
2019-04-25T15:09:47.070Z,0.60
2019-04-25T15:12:13.675Z,0.43
2019-04-25T15:14:39.939Z,0.40
2019-04-25T15:17:06.433Z,0.50
2019-04-25T15:19:32.648Z,0.90
2019-04-25T15:21:59.195Z,0.53
2019-04-25T15:24:25.315Z,0.60
2019-04-25T15:26:51.755Z,0.40
2019-04-25T15:29:17.912Z,0.40
2019-04-25T15:31:55.372Z,0.40
2019-04-25T15:34:12.178Z,0.13
2019-04-25T15:36:46.119Z,0.50
2019-04-25T15:39:26.232Z,0.47
2019-04-25T15:41:57.437Z,0.37
2019-04-25T15:44:26.638Z,0.50
2019-04-25T15:46:54.813Z,1.20
2019-04-25T15:49:20.986Z,0.30
2019-04-25T15:51:47.188Z,0.50
2019-04-25T15:54:13.321Z,0.50
2019-04-25T15:56:39.668Z,0.80
2019-04-25T15:59:05.893Z,0.30
2019-04-25T16:01:32.441Z,0.40
2019-04-25T16:04:01.730Z,0.40
2019-04-25T16:06:28.247Z,1.00
2019-04-25T16:08:54.409Z,1.03
2019-04-25T16:11:20.604Z,1.27
2019-04-25T16:13:46.842Z,1.20
2019-04-25T16:16:13.149Z,1.50
2019-04-25T16:18:39.288Z,0.93
2019-04-25T16:21:05.521Z,0.73
2019-04-25T16:23:32.172Z,0.70
2019-04-25T16:25:58.539Z,0.77
2019-04-25T16:28:24.669Z,0.60
2019-04-25T16:30:50.893Z,0.70
2019-04-25T16:33:17.153Z,0.80
2019-04-25T16:35:43.296Z,1.10
2019-04-25T16:38:10.135Z,0.97
2019-04-25T16:40:36.358Z,1.03
2019-04-25T16:43:05.109Z,0.93
2019-04-25T16:45:31.900Z,1.00
2019-04-25T16:47:58.245Z,1.00
2019-04-25T16:50:25.089Z,1.53
2019-04-25T16:52:51.301Z,1.20
2019-04-25T16:55:17.958Z,1.00
2019-04-25T16:57:44.341Z,1.00
2019-04-25T17:00:21.846Z,0.83
2019-04-25T17:02:48.057Z,1.30
2019-04-25T17:05:15.009Z,1.10
2019-04-25T17:07:41.247Z,1.20
2019-04-25T17:10:07.709Z,1.20
2019-04-25T17:12:34.339Z,1.40
2019-04-25T17:15:19.226Z,1.20
2019-04-25T17:17:53.324Z,1.17
2019-04-25T17:20:24.301Z,1.30
2019-04-25T17:22:50.531Z,1.43
2019-04-25T17:25:16.988Z,1.23
2019-04-25T17:27:43.495Z,1.40
2019-04-25T17:30:10.787Z,1.40
2019-04-25T17:32:50.299Z,1.30
2019-04-25T17:35:18.653Z,1.30
2019-04-25T17:37:46.785Z,1.03
2019-04-25T17:40:15.071Z,1.27
2019-04-25T17:42:41.429Z,1.30
2019-04-25T17:45:09.795Z,1.30
2019-04-25T17:47:36.552Z,1.20
2019-04-25T17:50:05.621Z,1.23
2019-04-25T17:52:32.634Z,1.47
2019-04-25T17:54:58.988Z,1.27
2019-04-25T17:57:25.191Z,1.37
2019-04-25T17:59:51.505Z,1.30
2019-04-25T18:02:17.631Z,1.50
2019-04-25T18:04:44.637Z,1.33
2019-04-25T18:07:10.821Z,1.13
2019-04-25T18:09:37.149Z,1.83
2019-04-25T18:12:03.804Z,1.70
2019-04-25T18:14:31.213Z,1.57
2019-04-25T18:16:57.518Z,1.50
2019-04-25T18:19:28.359Z,1.50
2019-04-25T18:21:56.423Z,1.73
2019-04-25T18:24:41.537Z,1.40
2019-04-25T18:27:09.944Z,2.00
2019-04-25T18:29:37.355Z,1.47
2019-04-25T18:32:04.240Z,1.87
2019-04-25T18:34:42.269Z,1.60
2019-04-25T18:37:13.434Z,1.70
2019-04-25T18:39:59.372Z,2.27
2019-04-25T18:42:39.952Z,1.73
2019-04-25T18:45:07.799Z,2.00
2019-04-25T18:47:33.958Z,2.00
2019-04-25T18:50:00.540Z,1.90
2019-04-25T18:52:43.654Z,2.53
2019-04-25T18:55:29.245Z,2.10
2019-04-25T18:58:00.681Z,1.73
2019-04-25T19:00:45.834Z,2.17
2019-04-25T19:03:31.307Z,2.03
2019-04-25T19:05:59.469Z,1.70
2019-04-25T19:08:25.628Z,2.27
2019-04-25T19:10:51.929Z,2.00
2019-04-25T19:13:18.131Z,2.17
2019-04-25T19:15:45.120Z,2.43
2019-04-25T19:18:11.437Z,2.43
2019-04-25T19:20:37.890Z,2.27
2019-04-25T19:23:04.203Z,2.60
2019-04-25T19:25:30.477Z,2.50
2019-04-25T19:27:56.645Z,2.60
2019-04-25T19:30:22.999Z,2.70
2019-04-25T19:32:49.183Z,2.33
2019-04-25T19:35:15.401Z,2.47
2019-04-25T19:37:41.950Z,2.77
2019-04-25T19:40:16.795Z,3.73
2019-04-25T19:42:57.111Z,3.20
2019-04-25T19:45:23.682Z,3.00
2019-04-25T19:47:49.860Z,3.17
2019-04-25T19:50:15.982Z,3.07
2019-04-25T19:52:42.834Z,3.33
2019-04-25T19:55:10.125Z,2.50
2019-04-25T19:57:36.339Z,2.20
2019-04-25T20:00:05.052Z,2.67
2019-04-25T20:02:45.229Z,2.43
2019-04-25T20:05:22.508Z,3.60
2019-04-25T20:07:51.294Z,4.40
2019-04-25T20:10:25.287Z,4.10
2019-04-25T20:12:53.427Z,4.10
2019-04-25T20:15:19.652Z,3.87
2019-04-25T20:17:46.020Z,3.70
2019-04-25T20:20:12.606Z,3.87
2019-04-25T20:22:39.730Z,3.90
2019-04-25T20:25:06.955Z,3.97
2019-04-25T20:27:33.172Z,4.07
2019-04-25T20:29:59.316Z,3.87
2019-04-25T20:32:25.544Z,3.90
2019-04-25T20:34:51.716Z,3.87
2019-04-25T20:37:18.132Z,3.97
2019-04-25T20:39:45.892Z,3.33
2019-04-25T20:42:12.235Z,3.87
2019-04-25T20:44:38.373Z,3.70
2019-04-25T20:47:04.628Z,3.77
2019-04-25T20:49:30.893Z,3.67
2019-04-25T20:51:57.025Z,3.60
2019-04-25T20:54:23.486Z,3.23
2019-04-25T20:56:50.897Z,3.27
2019-04-25T20:59:17.539Z,3.27
2019-04-25T21:01:43.680Z,3.33
2019-04-25T21:04:13.218Z,3.33
2019-04-25T21:06:40.475Z,3.13
2019-04-25T21:09:07.245Z,2.70
2019-04-25T21:11:33.422Z,2.70
2019-04-25T21:14:01.589Z,2.80
2019-04-25T21:16:42.068Z,2.70
2019-04-25T21:19:10.194Z,3.00
2019-04-25T21:21:36.355Z,2.87
2019-04-25T21:24:02.722Z,3.03
2019-04-25T21:26:28.867Z,2.90
2019-04-25T21:28:55.097Z,3.00
2019-04-25T21:31:21.256Z,2.90
2019-04-25T21:33:47.569Z,2.67
2019-04-25T21:36:14.029Z,2.97
2019-04-25T21:38:40.673Z,2.60
2019-04-25T21:41:17.868Z,2.60
2019-04-25T21:43:46.190Z,2.60
2019-04-25T21:46:12.632Z,2.37
2019-04-25T21:48:39.253Z,3.27
2019-04-25T21:51:23.930Z,2.67
2019-04-25T21:53:50.160Z,2.63
2019-04-25T21:56:16.607Z,3.00
2019-04-25T21:58:42.860Z,2.87
2019-04-25T22:01:11.144Z,2.83
2019-04-25T22:03:37.357Z,3.00
2019-04-25T22:06:05.125Z,2.57
2019-04-25T22:08:31.421Z,2.73
2019-04-25T22:10:59.120Z,2.67
2019-04-25T22:13:25.540Z,2.67
2019-04-25T22:15:52.056Z,2.40
2019-04-25T22:18:18.599Z,2.90
2019-04-25T22:20:45.005Z,2.23
2019-04-25T22:23:12.091Z,2.73
2019-04-25T22:25:38.514Z,2.40
2019-04-25T22:28:05.113Z,2.37
2019-04-25T22:30:31.786Z,2.17
2019-04-25T22:33:01.500Z,2.23
2019-04-25T22:35:35.814Z,2.70
2019-04-25T22:38:02.443Z,1.90
2019-04-25T22:40:28.651Z,2.10
2019-04-25T22:42:54.797Z,2.00
2019-04-25T22:45:21.214Z,2.07
2019-04-25T22:47:47.791Z,1.70
2019-04-25T22:50:13.995Z,1.87
2019-04-25T22:52:40.186Z,1.80
2019-04-25T22:55:08.250Z,2.10
2019-04-25T22:57:34.709Z,1.90
2019-04-25T23:00:01.984Z,2.03
2019-04-25T23:02:31.410Z,2.00
2019-04-25T23:05:12.863Z,2.33
2019-04-25T23:07:33.824Z,2.13
2019-04-25T23:10:00.420Z,1.97
2019-04-25T23:12:26.963Z,1.87
2019-04-25T23:14:53.109Z,1.47
2019-04-25T23:17:19.319Z,1.80
2019-04-25T23:19:45.777Z,1.90
2019-04-25T23:22:11.991Z,1.60
2019-04-25T23:24:40.045Z,2.17
2019-04-25T23:27:14.943Z,1.77
2019-04-25T23:29:41.091Z,2.10
2019-04-25T23:32:08.632Z,1.77
2019-04-25T23:34:34.783Z,1.70
2019-04-25T23:37:01.004Z,1.60
2019-04-25T23:39:27.351Z,1.73
2019-04-25T23:41:53.564Z,2.20
2019-04-25T23:44:19.710Z,1.87
2019-04-25T23:46:46.255Z,1.77
2019-04-25T23:49:12.715Z,1.87
2019-04-25T23:51:39.249Z,2.13
2019-04-25T23:54:05.391Z,1.50
2019-04-25T23:56:31.629Z,1.70
2019-04-25T23:58:58.294Z,1.90
